sensor_id;sensor_type;location;lat;lon;timestamp;P1;durP1;ratioP1;P2;durP2;ratioP2
26756;SDS011;23848;49.798;10.228;2023-10-19T00:07:46;10.95;;;5.85;;
26756;SDS011;23848;49.798;10.228;2023-10-19T00:11:02;8.77;;;6.03;;
26756;SDS011;23848;49.798;10.228;2023-10-19T00:13:50;8.45;;;5.50;;
26756;SDS011;23848;49.798;10.228;2023-10-19T00:16:39;10.73;;;5.90;;
26756;SDS011;23848;49.798;10.228;2023-10-19T00:19:47;11.60;;;6.43;;
26756;SDS011;23848;49.798;10.228;2023-10-19T00:22:51;8.40;;;5.63;;
26756;SDS011;23848;49.798;10.228;2023-10-19T00:25:32;12.15;;;6.00;;
26756;SDS011;23848;49.798;10.228;2023-10-19T00:31:36;9.80;;;6.35;;
26756;SDS011;23848;49.798;10.228;2023-10-19T00:34:35;10.75;;;6.25;;
26756;SDS011;23848;49.798;10.228;2023-10-19T00:43:43;11.70;;;6.28;;
26756;SDS011;23848;49.798;10.228;2023-10-19T00:46:26;10.02;;;6.22;;
26756;SDS011;23848;49.798;10.228;2023-10-19T00:49:06;10.40;;;6.43;;
26756;SDS011;23848;49.798;10.228;2023-10-19T00:51:52;9.98;;;6.15;;
26756;SDS011;23848;49.798;10.228;2023-10-19T00:54:36;10.65;;;6.88;;
26756;SDS011;23848;49.798;10.228;2023-10-19T00:57:42;10.93;;;6.82;;
26756;SDS011;23848;49.798;10.228;2023-10-19T01:00:17;10.55;;;6.60;;
26756;SDS011;23848;49.798;10.228;2023-10-19T01:03:25;9.95;;;6.47;;
26756;SDS011;23848;49.798;10.228;2023-10-19T01:08:44;10.15;;;6.50;;
26756;SDS011;23848;49.798;10.228;2023-10-19T01:11:23;10.93;;;6.45;;
26756;SDS011;23848;49.798;10.228;2023-10-19T01:14:17;10.02;;;6.30;;
26756;SDS011;23848;49.798;10.228;2023-10-19T01:17:00;9.60;;;6.13;;
26756;SDS011;23848;49.798;10.228;2023-10-19T01:19:35;9.27;;;6.30;;
26756;SDS011;23848;49.798;10.228;2023-10-19T01:22:11;12.70;;;7.22;;
26756;SDS011;23848;49.798;10.228;2023-10-19T01:25:04;10.35;;;6.28;;
26756;SDS011;23848;49.798;10.228;2023-10-19T01:28:15;9.50;;;6.18;;
26756;SDS011;23848;49.798;10.228;2023-10-19T01:30:49;12.07;;;6.88;;
26756;SDS011;23848;49.798;10.228;2023-10-19T01:33:24;11.68;;;6.50;;
26756;SDS011;23848;49.798;10.228;2023-10-19T01:36:24;9.68;;;6.18;;
26756;SDS011;23848;49.798;10.228;2023-10-19T01:39:05;12.23;;;6.13;;
26756;SDS011;23848;49.798;10.228;2023-10-19T01:41:47;10.93;;;6.60;;
26756;SDS011;23848;49.798;10.228;2023-10-19T01:44:24;10.90;;;6.75;;
26756;SDS011;23848;49.798;10.228;2023-10-19T01:47:08;10.00;;;5.95;;
26756;SDS011;23848;49.798;10.228;2023-10-19T01:49:37;9.65;;;6.22;;
26756;SDS011;23848;49.798;10.228;2023-10-19T01:52:09;12.65;;;6.90;;
26756;SDS011;23848;49.798;10.228;2023-10-19T01:54:53;10.98;;;6.47;;
26756;SDS011;23848;49.798;10.228;2023-10-19T01:57:32;10.05;;;6.32;;
26756;SDS011;23848;49.798;10.228;2023-10-19T02:00:15;9.50;;;6.18;;
26756;SDS011;23848;49.798;10.228;2023-10-19T02:02:54;11.43;;;7.00;;
26756;SDS011;23848;49.798;10.228;2023-10-19T02:05:40;11.55;;;7.05;;
26756;SDS011;23848;49.798;10.228;2023-10-19T02:08:19;9.80;;;6.43;;
26756;SDS011;23848;49.798;10.228;2023-10-19T02:10:51;11.93;;;6.85;;
26756;SDS011;23848;49.798;10.228;2023-10-19T02:16:48;11.15;;;6.43;;
26756;SDS011;23848;49.798;10.228;2023-10-19T02:19:41;9.48;;;6.50;;
26756;SDS011;23848;49.798;10.228;2023-10-19T02:22:17;10.68;;;6.60;;
26756;SDS011;23848;49.798;10.228;2023-10-19T02:24:53;12.10;;;6.88;;
26756;SDS011;23848;49.798;10.228;2023-10-19T02:27:49;10.50;;;6.65;;
26756;SDS011;23848;49.798;10.228;2023-10-19T02:30:51;11.13;;;7.20;;
26756;SDS011;23848;49.798;10.228;2023-10-19T02:33:30;11.75;;;6.93;;
26756;SDS011;23848;49.798;10.228;2023-10-19T02:36:10;13.25;;;7.55;;
26756;SDS011;23848;49.798;10.228;2023-10-19T02:38:51;15.10;;;8.00;;
26756;SDS011;23848;49.798;10.228;2023-10-19T02:41:21;11.45;;;7.18;;
26756;SDS011;23848;49.798;10.228;2023-10-19T02:44:00;13.10;;;6.75;;
26756;SDS011;23848;49.798;10.228;2023-10-19T02:46:47;11.07;;;7.05;;
26756;SDS011;23848;49.798;10.228;2023-10-19T02:49:21;13.23;;;7.25;;
26756;SDS011;23848;49.798;10.228;2023-10-19T02:51:56;11.35;;;6.90;;
26756;SDS011;23848;49.798;10.228;2023-10-19T02:54:32;11.85;;;7.75;;
26756;SDS011;23848;49.798;10.228;2023-10-19T02:57:10;11.70;;;7.18;;
26756;SDS011;23848;49.798;10.228;2023-10-19T03:00:00;12.80;;;6.75;;
26756;SDS011;23848;49.798;10.228;2023-10-19T03:02:53;14.43;;;7.25;;
26756;SDS011;23848;49.798;10.228;2023-10-19T03:05:52;13.30;;;7.53;;
26756;SDS011;23848;49.798;10.228;2023-10-19T03:08:32;13.45;;;7.85;;
26756;SDS011;23848;49.798;10.228;2023-10-19T03:11:24;12.95;;;7.82;;
26756;SDS011;23848;49.798;10.228;2023-10-19T03:14:00;13.00;;;7.53;;
26756;SDS011;23848;49.798;10.228;2023-10-19T03:16:36;11.15;;;7.78;;
26756;SDS011;23848;49.798;10.228;2023-10-19T03:19:21;13.18;;;8.20;;
26756;SDS011;23848;49.798;10.228;2023-10-19T03:22:02;11.98;;;7.68;;
26756;SDS011;23848;49.798;10.228;2023-10-19T03:24:38;11.88;;;7.30;;
26756;SDS011;23848;49.798;10.228;2023-10-19T03:27:14;13.73;;;7.53;;
26756;SDS011;23848;49.798;10.228;2023-10-19T03:29:59;11.82;;;7.30;;
26756;SDS011;23848;49.798;10.228;2023-10-19T03:32:28;14.38;;;8.25;;
26756;SDS011;23848;49.798;10.228;2023-10-19T03:35:02;11.23;;;7.15;;
26756;SDS011;23848;49.798;10.228;2023-10-19T03:37:41;15.15;;;8.70;;
26756;SDS011;23848;49.798;10.228;2023-10-19T03:40:20;13.05;;;8.02;;
26756;SDS011;23848;49.798;10.228;2023-10-19T03:43:14;13.13;;;8.15;;
26756;SDS011;23848;49.798;10.228;2023-10-19T03:45:52;14.50;;;8.43;;
26756;SDS011;23848;49.798;10.228;2023-10-19T03:48:25;12.20;;;7.75;;
26756;SDS011;23848;49.798;10.228;2023-10-19T03:51:05;13.80;;;7.65;;
26756;SDS011;23848;49.798;10.228;2023-10-19T03:54:00;15.10;;;8.30;;
26756;SDS011;23848;49.798;10.228;2023-10-19T03:56:44;12.88;;;7.65;;
26756;SDS011;23848;49.798;10.228;2023-10-19T03:59:40;10.38;;;6.65;;
26756;SDS011;23848;49.798;10.228;2023-10-19T04:05:32;12.57;;;8.00;;
26756;SDS011;23848;49.798;10.228;2023-10-19T04:08:21;11.65;;;7.03;;
26756;SDS011;23848;49.798;10.228;2023-10-19T04:11:04;13.23;;;7.80;;
26756;SDS011;23848;49.798;10.228;2023-10-19T04:14:08;12.73;;;7.55;;
26756;SDS011;23848;49.798;10.228;2023-10-19T04:16:55;12.95;;;8.07;;
26756;SDS011;23848;49.798;10.228;2023-10-19T04:19:40;15.38;;;8.65;;
26756;SDS011;23848;49.798;10.228;2023-10-19T04:22:32;13.45;;;8.20;;
26756;SDS011;23848;49.798;10.228;2023-10-19T04:25:11;13.82;;;7.43;;
26756;SDS011;23848;49.798;10.228;2023-10-19T04:31:21;13.70;;;7.88;;
26756;SDS011;23848;49.798;10.228;2023-10-19T04:34:27;14.27;;;8.38;;
26756;SDS011;23848;49.798;10.228;2023-10-19T04:37:26;13.43;;;8.50;;
26756;SDS011;23848;49.798;10.228;2023-10-19T04:40:23;13.35;;;8.27;;
26756;SDS011;23848;49.798;10.228;2023-10-19T04:43:53;16.45;;;8.13;;
26756;SDS011;23848;49.798;10.228;2023-10-19T04:56:39;13.95;;;8.63;;
26756;SDS011;23848;49.798;10.228;2023-10-19T04:59:41;12.98;;;7.68;;
26756;SDS011;23848;49.798;10.228;2023-10-19T05:06:04;13.70;;;7.78;;
26756;SDS011;23848;49.798;10.228;2023-10-19T05:09:08;13.82;;;7.32;;
26756;SDS011;23848;49.798;10.228;2023-10-19T05:18:16;11.95;;;7.38;;
26756;SDS011;23848;49.798;10.228;2023-10-19T05:20:59;12.90;;;7.63;;
26756;SDS011;23848;49.798;10.228;2023-10-19T05:27:26;12.23;;;7.05;;
26756;SDS011;23848;49.798;10.228;2023-10-19T05:30:28;13.13;;;8.13;;
26756;SDS011;23848;49.798;10.228;2023-10-19T05:39:33;14.27;;;7.72;;
26756;SDS011;23848;49.798;10.228;2023-10-19T05:42:11;12.32;;;7.20;;
26756;SDS011;23848;49.798;10.228;2023-10-19T05:45:10;12.15;;;7.75;;
26756;SDS011;23848;49.798;10.228;2023-10-19T05:47:43;14.88;;;8.98;;
26756;SDS011;23848;49.798;10.228;2023-10-19T05:50:22;12.75;;;7.43;;
26756;SDS011;23848;49.798;10.228;2023-10-19T05:52:55;12.75;;;8.32;;
26756;SDS011;23848;49.798;10.228;2023-10-19T05:55:57;13.02;;;7.40;;
26756;SDS011;23848;49.798;10.228;2023-10-19T05:58:45;10.98;;;7.07;;
26756;SDS011;23848;49.798;10.228;2023-10-19T06:01:23;11.88;;;7.78;;
26756;SDS011;23848;49.798;10.228;2023-10-19T06:03:59;11.82;;;7.70;;
26756;SDS011;23848;49.798;10.228;2023-10-19T06:06:28;11.85;;;7.75;;
26756;SDS011;23848;49.798;10.228;2023-10-19T06:09:00;12.43;;;7.20;;
26756;SDS011;23848;49.798;10.228;2023-10-19T06:11:39;13.95;;;7.80;;
26756;SDS011;23848;49.798;10.228;2023-10-19T06:14:13;13.20;;;7.60;;
26756;SDS011;23848;49.798;10.228;2023-10-19T06:16:46;12.77;;;7.70;;
26756;SDS011;23848;49.798;10.228;2023-10-19T06:19:17;12.23;;;7.57;;
26756;SDS011;23848;49.798;10.228;2023-10-19T06:21:46;12.50;;;8.00;;
26756;SDS011;23848;49.798;10.228;2023-10-19T06:24:15;12.65;;;7.70;;
26756;SDS011;23848;49.798;10.228;2023-10-19T06:26:47;12.30;;;7.75;;
26756;SDS011;23848;49.798;10.228;2023-10-19T06:31:56;14.43;;;9.35;;
26756;SDS011;23848;49.798;10.228;2023-10-19T06:34:40;11.27;;;7.68;;
26756;SDS011;23848;49.798;10.228;2023-10-19T06:37:10;12.68;;;8.50;;
26756;SDS011;23848;49.798;10.228;2023-10-19T06:39:39;14.35;;;8.52;;
26756;SDS011;23848;49.798;10.228;2023-10-19T06:42:10;12.90;;;7.40;;
26756;SDS011;23848;49.798;10.228;2023-10-19T06:44:45;11.40;;;7.80;;
26756;SDS011;23848;49.798;10.228;2023-10-19T06:47:26;13.07;;;8.68;;
26756;SDS011;23848;49.798;10.228;2023-10-19T06:50:05;13.15;;;8.75;;
26756;SDS011;23848;49.798;10.228;2023-10-19T06:52:41;13.32;;;8.80;;
26756;SDS011;23848;49.798;10.228;2023-10-19T06:55:18;13.00;;;7.88;;
26756;SDS011;23848;49.798;10.228;2023-10-19T06:58:03;13.13;;;8.23;;
26756;SDS011;23848;49.798;10.228;2023-10-19T07:00:43;14.85;;;8.65;;
26756;SDS011;23848;49.798;10.228;2023-10-19T07:03:25;14.45;;;9.38;;
26756;SDS011;23848;49.798;10.228;2023-10-19T07:06:04;12.68;;;7.45;;
26756;SDS011;23848;49.798;10.228;2023-10-19T07:08:49;12.93;;;7.82;;
26756;SDS011;23848;49.798;10.228;2023-10-19T07:11:27;12.55;;;8.20;;
26756;SDS011;23848;49.798;10.228;2023-10-19T07:14:01;12.68;;;7.35;;
26756;SDS011;23848;49.798;10.228;2023-10-19T07:16:51;15.13;;;9.25;;
26756;SDS011;23848;49.798;10.228;2023-10-19T07:22:18;15.27;;;9.27;;
26756;SDS011;23848;49.798;10.228;2023-10-19T07:25:06;15.10;;;8.50;;
26756;SDS011;23848;49.798;10.228;2023-10-19T07:27:47;15.52;;;9.32;;
26756;SDS011;23848;49.798;10.228;2023-10-19T07:30:29;16.23;;;9.38;;
26756;SDS011;23848;49.798;10.228;2023-10-19T07:33:12;16.20;;;9.50;;
26756;SDS011;23848;49.798;10.228;2023-10-19T07:36:11;12.10;;;7.95;;
26756;SDS011;23848;49.798;10.228;2023-10-19T07:41:53;15.02;;;9.38;;
26756;SDS011;23848;49.798;10.228;2023-10-19T07:44:45;15.30;;;10.15;;
26756;SDS011;23848;49.798;10.228;2023-10-19T07:47:41;13.77;;;8.32;;
26756;SDS011;23848;49.798;10.228;2023-10-19T07:50:37;14.40;;;9.00;;
26756;SDS011;23848;49.798;10.228;2023-10-19T07:53:28;15.05;;;9.15;;
26756;SDS011;23848;49.798;10.228;2023-10-19T07:56:32;14.25;;;8.48;;
26756;SDS011;23848;49.798;10.228;2023-10-19T08:09:27;12.85;;;8.68;;
26756;SDS011;23848;49.798;10.228;2023-10-19T08:15:44;10.82;;;7.30;;
26756;SDS011;23848;49.798;10.228;2023-10-19T08:19:01;14.32;;;8.45;;
26756;SDS011;23848;49.798;10.228;2023-10-19T08:22:26;15.20;;;8.48;;
26756;SDS011;23848;49.798;10.228;2023-10-19T08:29:24;13.02;;;7.53;;
26756;SDS011;23848;49.798;10.228;2023-10-19T08:32:44;12.98;;;7.03;;
26756;SDS011;23848;49.798;10.228;2023-10-19T08:39:55;12.82;;;7.28;;
26756;SDS011;23848;49.798;10.228;2023-10-19T08:42:49;12.95;;;8.13;;
26756;SDS011;23848;49.798;10.228;2023-10-19T08:52:12;11.98;;;7.70;;
26756;SDS011;23848;49.798;10.228;2023-10-19T08:55:26;15.02;;;8.52;;
26756;SDS011;23848;49.798;10.228;2023-10-19T08:58:29;11.60;;;7.43;;
26756;SDS011;23848;49.798;10.228;2023-10-19T09:01:35;10.00;;;7.15;;
26756;SDS011;23848;49.798;10.228;2023-10-19T09:04:47;12.38;;;6.97;;
26756;SDS011;23848;49.798;10.228;2023-10-19T09:07:54;11.30;;;6.60;;
26756;SDS011;23848;49.798;10.228;2023-10-19T09:11:13;11.57;;;7.55;;
26756;SDS011;23848;49.798;10.228;2023-10-19T09:20:03;11.68;;;7.15;;
26756;SDS011;23848;49.798;10.228;2023-10-19T09:26:36;11.90;;;8.20;;
26756;SDS011;23848;49.798;10.228;2023-10-19T09:29:17;13.93;;;7.47;;
26756;SDS011;23848;49.798;10.228;2023-10-19T09:36:22;10.25;;;6.55;;
26756;SDS011;23848;49.798;10.228;2023-10-19T09:45:27;10.23;;;6.82;;
26756;SDS011;23848;49.798;10.228;2023-10-19T09:58:02;11.30;;;6.70;;
26756;SDS011;23848;49.798;10.228;2023-10-19T10:01:07;11.27;;;6.90;;
26756;SDS011;23848;49.798;10.228;2023-10-19T10:04:03;10.63;;;6.68;;
26756;SDS011;23848;49.798;10.228;2023-10-19T10:07:07;10.73;;;6.38;;
26756;SDS011;23848;49.798;10.228;2023-10-19T10:22:41;12.50;;;6.60;;
26756;SDS011;23848;49.798;10.228;2023-10-19T10:25:49;12.30;;;6.95;;
26756;SDS011;23848;49.798;10.228;2023-10-19T10:39:49;10.95;;;6.30;;
26756;SDS011;23848;49.798;10.228;2023-10-19T10:43:28;8.68;;;5.70;;
26756;SDS011;23848;49.798;10.228;2023-10-19T10:50:05;10.77;;;6.22;;
26756;SDS011;23848;49.798;10.228;2023-10-19T10:53:31;10.80;;;6.45;;
26756;SDS011;23848;49.798;10.228;2023-10-19T11:06:55;9.77;;;6.60;;
26756;SDS011;23848;49.798;10.228;2023-10-19T11:13:34;9.63;;;5.80;;
26756;SDS011;23848;49.798;10.228;2023-10-19T11:16:44;8.95;;;5.60;;
26756;SDS011;23848;49.798;10.228;2023-10-19T11:19:55;8.98;;;5.47;;
26756;SDS011;23848;49.798;10.228;2023-10-19T11:26:02;9.02;;;4.72;;
26756;SDS011;23848;49.798;10.228;2023-10-19T11:28:54;8.65;;;5.20;;
26756;SDS011;23848;49.798;10.228;2023-10-19T11:31:56;10.35;;;6.18;;
26756;SDS011;23848;49.798;10.228;2023-10-19T11:34:39;8.27;;;4.70;;
26756;SDS011;23848;49.798;10.228;2023-10-19T11:37:20;8.95;;;5.40;;
26756;SDS011;23848;49.798;10.228;2023-10-19T11:39:57;8.48;;;4.95;;
26756;SDS011;23848;49.798;10.228;2023-10-19T11:42:37;7.35;;;4.63;;
26756;SDS011;23848;49.798;10.228;2023-10-19T11:45:21;8.95;;;5.30;;
26756;SDS011;23848;49.798;10.228;2023-10-19T11:48:10;8.55;;;5.65;;
26756;SDS011;23848;49.798;10.228;2023-10-19T11:51:02;8.80;;;5.18;;
26756;SDS011;23848;49.798;10.228;2023-10-19T11:53:38;8.40;;;5.80;;
26756;SDS011;23848;49.798;10.228;2023-10-19T11:56:31;9.43;;;5.55;;
26756;SDS011;23848;49.798;10.228;2023-10-19T11:59:09;7.60;;;5.20;;
26756;SDS011;23848;49.798;10.228;2023-10-19T12:05:16;9.10;;;5.45;;
26756;SDS011;23848;49.798;10.228;2023-10-19T12:08:06;7.88;;;5.47;;
26756;SDS011;23848;49.798;10.228;2023-10-19T12:11:09;9.60;;;4.90;;
26756;SDS011;23848;49.798;10.228;2023-10-19T12:14:18;8.23;;;5.05;;
26756;SDS011;23848;49.798;10.228;2023-10-19T12:20:55;6.60;;;4.40;;
26756;SDS011;23848;49.798;10.228;2023-10-19T12:23:35;7.03;;;4.78;;
26756;SDS011;23848;49.798;10.228;2023-10-19T12:26:25;9.55;;;5.07;;
26756;SDS011;23848;49.798;10.228;2023-10-19T12:29:06;6.55;;;4.57;;
26756;SDS011;23848;49.798;10.228;2023-10-19T12:32:05;6.80;;;4.53;;
26756;SDS011;23848;49.798;10.228;2023-10-19T12:35:16;8.38;;;5.40;;
26756;SDS011;23848;49.798;10.228;2023-10-19T12:38:14;7.15;;;4.55;;
26756;SDS011;23848;49.798;10.228;2023-10-19T12:41:14;8.38;;;5.00;;
26756;SDS011;23848;49.798;10.228;2023-10-19T12:44:30;7.43;;;4.35;;
26756;SDS011;23848;49.798;10.228;2023-10-19T12:47:24;7.82;;;5.18;;
26756;SDS011;23848;49.798;10.228;2023-10-19T12:50:21;7.32;;;4.93;;
26756;SDS011;23848;49.798;10.228;2023-10-19T12:53:12;8.80;;;4.88;;
26756;SDS011;23848;49.798;10.228;2023-10-19T12:55:57;9.65;;;5.88;;
26756;SDS011;23848;49.798;10.228;2023-10-19T12:59:06;9.27;;;5.18;;
26756;SDS011;23848;49.798;10.228;2023-10-19T13:08:20;9.70;;;5.40;;
26756;SDS011;23848;49.798;10.228;2023-10-19T13:11:40;7.88;;;5.10;;
26756;SDS011;23848;49.798;10.228;2023-10-19T13:14:34;8.48;;;5.10;;
26756;SDS011;23848;49.798;10.228;2023-10-19T13:17:33;7.43;;;4.45;;
26756;SDS011;23848;49.798;10.228;2023-10-19T13:20:14;7.25;;;4.28;;
26756;SDS011;23848;49.798;10.228;2023-10-19T13:23:22;6.90;;;4.30;;
26756;SDS011;23848;49.798;10.228;2023-10-19T13:26:23;9.18;;;4.90;;
26756;SDS011;23848;49.798;10.228;2023-10-19T13:29:22;8.68;;;5.35;;
26756;SDS011;23848;49.798;10.228;2023-10-19T13:32:17;9.18;;;5.47;;
26756;SDS011;23848;49.798;10.228;2023-10-19T13:35:03;8.15;;;5.05;;
26756;SDS011;23848;49.798;10.228;2023-10-19T13:38:15;7.90;;;5.32;;
26756;SDS011;23848;49.798;10.228;2023-10-19T13:41:00;8.68;;;5.65;;
26756;SDS011;23848;49.798;10.228;2023-10-19T13:43:52;8.85;;;5.50;;
26756;SDS011;23848;49.798;10.228;2023-10-19T13:46:45;9.90;;;5.80;;
26756;SDS011;23848;49.798;10.228;2023-10-19T13:49:28;9.45;;;6.00;;
26756;SDS011;23848;49.798;10.228;2023-10-19T13:52:31;8.85;;;6.05;;
26756;SDS011;23848;49.798;10.228;2023-10-19T13:55:22;9.30;;;6.00;;
26756;SDS011;23848;49.798;10.228;2023-10-19T14:01:07;9.95;;;6.32;;
26756;SDS011;23848;49.798;10.228;2023-10-19T14:04:00;9.63;;;6.32;;
26756;SDS011;23848;49.798;10.228;2023-10-19T14:06:46;10.55;;;5.65;;
26756;SDS011;23848;49.798;10.228;2023-10-19T14:09:31;10.32;;;6.63;;
26756;SDS011;23848;49.798;10.228;2023-10-19T14:12:08;8.38;;;5.68;;
26756;SDS011;23848;49.798;10.228;2023-10-19T14:15:12;12.23;;;7.00;;
26756;SDS011;23848;49.798;10.228;2023-10-19T14:20:53;9.00;;;6.20;;
26756;SDS011;23848;49.798;10.228;2023-10-19T14:23:35;8.15;;;6.25;;
26756;SDS011;23848;49.798;10.228;2023-10-19T14:26:21;10.73;;;7.00;;
26756;SDS011;23848;49.798;10.228;2023-10-19T14:29:09;10.32;;;7.20;;
26756;SDS011;23848;49.798;10.228;2023-10-19T14:31:52;10.25;;;6.82;;
26756;SDS011;23848;49.798;10.228;2023-10-19T14:34:27;9.60;;;5.93;;
26756;SDS011;23848;49.798;10.228;2023-10-19T14:37:11;10.93;;;6.72;;
26756;SDS011;23848;49.798;10.228;2023-10-19T14:39:49;8.52;;;5.68;;
26756;SDS011;23848;49.798;10.228;2023-10-19T14:42:47;9.93;;;6.28;;
26756;SDS011;23848;49.798;10.228;2023-10-19T14:45:40;10.95;;;6.25;;
26756;SDS011;23848;49.798;10.228;2023-10-19T14:48:35;8.98;;;6.25;;
26756;SDS011;23848;49.798;10.228;2023-10-19T14:51:26;10.35;;;5.93;;
26756;SDS011;23848;49.798;10.228;2023-10-19T14:54:07;10.30;;;6.30;;
26756;SDS011;23848;49.798;10.228;2023-10-19T14:56:47;11.43;;;6.72;;
26756;SDS011;23848;49.798;10.228;2023-10-19T15:02:27;11.82;;;7.15;;
26756;SDS011;23848;49.798;10.228;2023-10-19T15:05:06;12.02;;;7.20;;
26756;SDS011;23848;49.798;10.228;2023-10-19T15:07:58;9.52;;;6.40;;
26756;SDS011;23848;49.798;10.228;2023-10-19T15:10:42;10.10;;;6.40;;
26756;SDS011;23848;49.798;10.228;2023-10-19T15:13:21;9.93;;;6.45;;
26756;SDS011;23848;49.798;10.228;2023-10-19T15:16:07;10.52;;;6.38;;
26756;SDS011;23848;49.798;10.228;2023-10-19T15:18:50;11.30;;;6.55;;
26756;SDS011;23848;49.798;10.228;2023-10-19T15:27:27;10.68;;;7.13;;
26756;SDS011;23848;49.798;10.228;2023-10-19T15:30:05;11.20;;;6.57;;
26756;SDS011;23848;49.798;10.228;2023-10-19T15:32:40;10.55;;;6.45;;
26756;SDS011;23848;49.798;10.228;2023-10-19T15:35:18;9.68;;;6.38;;
26756;SDS011;23848;49.798;10.228;2023-10-19T15:37:56;12.52;;;6.85;;
26756;SDS011;23848;49.798;10.228;2023-10-19T15:40:41;10.60;;;6.82;;
26756;SDS011;23848;49.798;10.228;2023-10-19T15:46:30;9.88;;;6.88;;
26756;SDS011;23848;49.798;10.228;2023-10-19T15:49:23;10.52;;;7.07;;
26756;SDS011;23848;49.798;10.228;2023-10-19T15:52:11;11.68;;;6.65;;
26756;SDS011;23848;49.798;10.228;2023-10-19T15:55:05;10.77;;;6.93;;
26756;SDS011;23848;49.798;10.228;2023-10-19T15:57:42;11.68;;;6.93;;
26756;SDS011;23848;49.798;10.228;2023-10-19T16:00:29;11.80;;;6.85;;
26756;SDS011;23848;49.798;10.228;2023-10-19T16:03:14;13.57;;;7.63;;
26756;SDS011;23848;49.798;10.228;2023-10-19T16:05:50;10.18;;;7.10;;
26756;SDS011;23848;49.798;10.228;2023-10-19T16:08:33;10.75;;;6.70;;
26756;SDS011;23848;49.798;10.228;2023-10-19T16:11:10;10.65;;;6.80;;
26756;SDS011;23848;49.798;10.228;2023-10-19T16:13:56;10.88;;;7.32;;
26756;SDS011;23848;49.798;10.228;2023-10-19T16:16:34;10.57;;;7.13;;
26756;SDS011;23848;49.798;10.228;2023-10-19T16:19:19;10.20;;;6.78;;
26756;SDS011;23848;49.798;10.228;2023-10-19T16:22:04;11.07;;;7.18;;
26756;SDS011;23848;49.798;10.228;2023-10-19T16:24:58;8.85;;;6.53;;
26756;SDS011;23848;49.798;10.228;2023-10-19T16:27:31;11.30;;;6.97;;
26756;SDS011;23848;49.798;10.228;2023-10-19T16:30:04;10.13;;;6.85;;
26756;SDS011;23848;49.798;10.228;2023-10-19T16:32:45;10.07;;;6.93;;
26756;SDS011;23848;49.798;10.228;2023-10-19T16:35:16;11.38;;;7.32;;
26756;SDS011;23848;49.798;10.228;2023-10-19T16:37:45;11.35;;;7.53;;
26756;SDS011;23848;49.798;10.228;2023-10-19T16:40:16;10.57;;;6.80;;
26756;SDS011;23848;49.798;10.228;2023-10-19T16:42:55;11.02;;;7.57;;
26756;SDS011;23848;49.798;10.228;2023-10-19T16:45:36;11.27;;;7.15;;
26756;SDS011;23848;49.798;10.228;2023-10-19T16:48:20;12.10;;;6.72;;
26756;SDS011;23848;49.798;10.228;2023-10-19T16:54:05;11.93;;;7.15;;
26756;SDS011;23848;49.798;10.228;2023-10-19T16:56:39;10.35;;;7.07;;
26756;SDS011;23848;49.798;10.228;2023-10-19T16:59:28;9.90;;;7.18;;
26756;SDS011;23848;49.798;10.228;2023-10-19T17:02:12;9.70;;;6.47;;
26756;SDS011;23848;49.798;10.228;2023-10-19T17:04:56;9.50;;;6.68;;
26756;SDS011;23848;49.798;10.228;2023-10-19T17:07:32;11.23;;;7.07;;
26756;SDS011;23848;49.798;10.228;2023-10-19T17:10:09;11.73;;;7.90;;
26756;SDS011;23848;49.798;10.228;2023-10-19T17:12:47;9.93;;;6.75;;
26756;SDS011;23848;49.798;10.228;2023-10-19T17:15:29;14.82;;;6.95;;
26756;SDS011;23848;49.798;10.228;2023-10-19T17:18:07;10.15;;;7.10;;
26756;SDS011;23848;49.798;10.228;2023-10-19T17:20:46;10.75;;;7.78;;
26756;SDS011;23848;49.798;10.228;2023-10-19T17:23:20;10.68;;;7.35;;
26756;SDS011;23848;49.798;10.228;2023-10-19T17:26:01;12.82;;;7.38;;
26756;SDS011;23848;49.798;10.228;2023-10-19T17:28:49;9.77;;;6.68;;
26756;SDS011;23848;49.798;10.228;2023-10-19T17:31:22;12.10;;;6.63;;
26756;SDS011;23848;49.798;10.228;2023-10-19T17:34:07;10.65;;;6.97;;
26756;SDS011;23848;49.798;10.228;2023-10-19T17:37:03;10.68;;;6.07;;
26756;SDS011;23848;49.798;10.228;2023-10-19T17:39:47;9.52;;;6.30;;
26756;SDS011;23848;49.798;10.228;2023-10-19T17:42:34;10.88;;;7.13;;
26756;SDS011;23848;49.798;10.228;2023-10-19T17:48:25;11.15;;;6.95;;
26756;SDS011;23848;49.798;10.228;2023-10-19T17:51:15;9.13;;;6.13;;
26756;SDS011;23848;49.798;10.228;2023-10-19T17:54:09;9.57;;;6.03;;
26756;SDS011;23848;49.798;10.228;2023-10-19T17:56:42;10.45;;;6.65;;
26756;SDS011;23848;49.798;10.228;2023-10-19T17:59:21;8.75;;;5.78;;
26756;SDS011;23848;49.798;10.228;2023-10-19T18:02:19;8.98;;;6.07;;
26756;SDS011;23848;49.798;10.228;2023-10-19T18:05:01;14.00;;;6.55;;
26756;SDS011;23848;49.798;10.228;2023-10-19T18:13:48;8.63;;;5.90;;
26756;SDS011;23848;49.798;10.228;2023-10-19T18:16:23;10.60;;;7.13;;
26756;SDS011;23848;49.798;10.228;2023-10-19T18:19:13;12.65;;;8.05;;
26756;SDS011;23848;49.798;10.228;2023-10-19T18:25:17;11.18;;;7.63;;
26756;SDS011;23848;49.798;10.228;2023-10-19T18:28:06;11.88;;;8.43;;
26756;SDS011;23848;49.798;10.228;2023-10-19T18:31:11;11.35;;;7.90;;
26756;SDS011;23848;49.798;10.228;2023-10-19T18:47:17;12.80;;;8.85;;
26756;SDS011;23848;49.798;10.228;2023-10-19T18:50:02;12.73;;;7.50;;
26756;SDS011;23848;49.798;10.228;2023-10-19T18:54:36;11.70;;;7.40;;
26756;SDS011;23848;49.798;10.228;2023-10-19T18:56:52;11.75;;;7.53;;
26756;SDS011;23848;49.798;10.228;2023-10-19T19:10:09;14.18;;;7.57;;
26756;SDS011;23848;49.798;10.228;2023-10-19T19:13:05;13.05;;;8.70;;
26756;SDS011;23848;49.798;10.228;2023-10-19T19:15:52;13.20;;;8.00;;
26756;SDS011;23848;49.798;10.228;2023-10-19T19:18:39;13.40;;;9.30;;
26756;SDS011;23848;49.798;10.228;2023-10-19T19:21:29;12.82;;;8.60;;
26756;SDS011;23848;49.798;10.228;2023-10-19T19:25:14;12.88;;;9.25;;
26756;SDS011;23848;49.798;10.228;2023-10-19T19:27:46;12.40;;;8.48;;
26756;SDS011;23848;49.798;10.228;2023-10-19T19:30:20;11.57;;;8.60;;
26756;SDS011;23848;49.798;10.228;2023-10-19T19:33:21;11.45;;;8.10;;
26756;SDS011;23848;49.798;10.228;2023-10-19T19:46:05;9.85;;;7.18;;
26756;SDS011;23848;49.798;10.228;2023-10-19T19:48:56;11.23;;;7.70;;
26756;SDS011;23848;49.798;10.228;2023-10-19T19:55:02;11.15;;;7.45;;
26756;SDS011;23848;49.798;10.228;2023-10-19T19:58:20;13.40;;;8.32;;
26756;SDS011;23848;49.798;10.228;2023-10-19T20:00:56;12.63;;;8.38;;
26756;SDS011;23848;49.798;10.228;2023-10-19T20:03:48;13.13;;;8.75;;
26756;SDS011;23848;49.798;10.228;2023-10-19T20:06:54;11.27;;;7.75;;
26756;SDS011;23848;49.798;10.228;2023-10-19T20:10:02;13.80;;;8.43;;
26756;SDS011;23848;49.798;10.228;2023-10-19T20:16:55;13.82;;;8.43;;
26756;SDS011;23848;49.798;10.228;2023-10-19T20:32:57;10.88;;;6.97;;
26756;SDS011;23848;49.798;10.228;2023-10-19T20:36:14;12.25;;;8.05;;
26756;SDS011;23848;49.798;10.228;2023-10-19T20:39:12;10.73;;;6.63;;
26756;SDS011;23848;49.798;10.228;2023-10-19T20:48:56;10.93;;;6.82;;
26756;SDS011;23848;49.798;10.228;2023-10-19T20:52:16;10.18;;;6.93;;
26756;SDS011;23848;49.798;10.228;2023-10-19T20:55:34;10.68;;;7.00;;
26756;SDS011;23848;49.798;10.228;2023-10-19T20:58:42;10.02;;;6.82;;
26756;SDS011;23848;49.798;10.228;2023-10-19T21:02:03;11.65;;;7.28;;
26756;SDS011;23848;49.798;10.228;2023-10-19T21:05:12;11.88;;;7.70;;
26756;SDS011;23848;49.798;10.228;2023-10-19T21:11:18;9.05;;;5.97;;